Ship Status Report: callsign AMOUK20

sailwx.info

Track history (hours):
 
Tides and Currents Weather Stations Pressure Air Temp Water Temp Dewpoint Dewpoint Depression Visibility Wind Speed Wind Dir Waves Ship Positions

Callsign AMOUK20 (name unknown)

Last reported at 2014-Oct-04 11:00 UTC. Time now 2014-Dec-21 15:52 UTC.
Position S 51°54' W 058°36'.
Warning: this ship's position is months out of date.

Barometer 1018.7 mb
Air temperature 5.8 ° C

Date/timePositionNaut miles runAvg speedWind from/ knotsBaromVisibWave heightAir tempDewpointWater temp
2014-Oct-04 11:00S 51°54' W 058°36'4 3.7 1018.7 5.8
2014-Oct-04 10:00S 51°54' W 058°30'0 0.0 1019.2 5.8
2014-Oct-04 09:00S 51°54' W 058°30'0 0.0 1019.4 5.5
2014-Oct-04 08:00S 51°54' W 058°30'0 0.0 1019.5 5.4
2014-Oct-04 07:00S 51°54' W 058°30'0 0.0 1019.7 5.5
2014-Oct-04 06:00S 51°54' W 058°30'0 0.0 1020.0 5.6
2014-Oct-04 05:00S 51°54' W 058°30'0 0.0 1020.7 5.6
2014-Oct-04 04:00S 51°54' W 058°30'0 0.0 1021.0 5.5
2014-Oct-04 03:00S 51°54' W 058°30'0 0.0 1022.0 5.4
2014-Oct-04 02:00S 51°54' W 058°30'0 0.0 1022.0 5.2
2014-Oct-04 01:00S 51°54' W 058°30'0 0.0 1021.4 5.4
2014-Oct-04 00:00S 51°54' W 058°30'0 0.0 1022.6 5.4
2014-Oct-03 23:00S 51°54' W 058°30'0 0.0 1022.5 5.5
2014-Oct-03 21:00S 51°54' W 058°30'0 0.0 1022.9 5.9
2014-Oct-03 19:00S 51°54' W 058°30'4 3.7 1022.0 6.3
2014-Oct-03 18:00S 51°54' W 058°36'7 7.4 1022.3 6.3
2014-Oct-03 17:00S 51°54' W 058°24'10 4.8 1022.8 8.8
2014-Oct-03 15:00S 52°00' W 058°12'0 0.0 1024.2 8.2
2014-Oct-03 14:00S 52°00' W 058°12'0 0.0 1024.8 7.4
2014-Oct-03 13:00S 52°00' W 058°12'0 0.0 1025.0 7.4
2014-Oct-03 12:00S 52°00' W 058°12'4 3.7 1025.6 6.3
2014-Oct-03 11:00S 52°00' W 058°06'4 3.7 1025.4 5.5
2014-Oct-03 10:00S 52°00' W 058°12'4 3.7 1025.3 4.8
2014-Oct-03 09:00S 52°00' W 058°06'4 3.7 1026.1 4.4
2014-Oct-03 08:00S 52°00' W 058°12'0 0.0 1026.4 5.9
2014-Oct-03 07:00S 52°00' W 058°12'0 0.0 1026.7 5.2
2014-Oct-03 06:00S 52°00' W 058°12'0 0.0 1026.9 4.4
2014-Oct-03 05:00S 52°00' W 058°12'0 0.0 1028.2 3.7
2014-Oct-03 03:00S 52°00' W 058°12'13 6.3 1029.2 3.6
2014-Oct-03 01:00S 52°06' W 057°54'1514.7 1029.3 4.7
2014-Oct-03 00:00S 52°06' W 057°30'2311.4 1029.2 5.3
2014-Oct-02 22:00S 52°12' W 056°54'1111.0 1028.0 5.6
2014-Oct-02 21:00S 52°12' W 056°36'1514.7 1027.6 5.8
2014-Oct-02 20:00S 52°12' W 056°12'1312.5 1027.3 5.3
2014-Oct-02 19:00S 52°18' W 055°54'1111.0 1027.1 4.7
2014-Oct-02 18:00S 52°18' W 055°36'1312.5 1026.5 4.4
2014-Oct-02 17:00S 52°24' W 055°18'2311.4 1026.4 4.3
2014-Oct-02 15:00S 52°30' W 054°42'1111.0 1026.0 4.4
2014-Oct-02 14:00S 52°30' W 054°24'2311.3 1025.3 4.0
2014-Oct-02 12:00S 52°36' W 053°48'1212.5 1023.6 3.7
2014-Oct-02 11:00S 52°42' W 053°30'7 7.3 1023.3 3.5
2014-Oct-02 10:00S 52°42' W 053°18'1110.9 1022.1 3.1
2014-Oct-02 09:00S 52°42' W 053°00'1212.4 1020.3 2.8
2014-Oct-02 08:00S 52°48' W 052°42'1110.9 1019.6 2.6
2014-Oct-02 07:00S 52°48' W 052°24'1212.4 1018.9 2.3
2014-Oct-02 06:00S 52°54' W 052°06'1110.9 1018.1 2.4
2014-Oct-02 05:00S 52°54' W 051°48'1110.9 1017.6 2.6
2014-Oct-02 04:00S 52°54' W 051°30'1212.4 1016.0 2.5
2014-Oct-02 03:00S 53°00' W 051°12'1110.8 1016.0 2.7
2014-Oct-02 02:00S 53°00' W 050°54'1110.8 1014.7 2.8
2014-Oct-02 01:00S 53°00' W 050°36'9 9.4 1014.3 3.0
2014-Oct-02 00:00S 53°06' W 050°24'2210.8 1013.4 3.1
2014-Oct-01 22:00S 53°06' W 049°48'1212.4 1010.8 2.8
2014-Oct-01 21:00S 53°12' W 049°30'2210.8 1009.9 2.6
2014-Oct-01 19:00S 53°12' W 048°54'1110.8 1008.0 1.1
2014-Oct-01 18:00S 53°12' W 048°36'1212.3 1007.6 1.4
2014-Oct-01 17:00S 53°18' W 048°18'1110.8 1006.2 0.8
2014-Oct-01 16:00S 53°18' W 048°00'1110.8 1006.3 0.6
2014-Oct-01 15:00S 53°18' W 047°42'1212.3 1005.5 0.6
2014-Oct-01 14:00S 53°24' W 047°24'2512.5 1004.8 0.1
2014-Oct-01 12:00S 53°24' W 046°42'1110.7 1003.0 -0.4
2014-Oct-01 11:00S 53°24' W 046°24'2211.1 1001.8
2014-Oct-01 09:00S 53°30' W 045°48'18 8.9 998.8 0.5
2014-Oct-01 07:00S 53°30' W 045°18'1212.3 998.7 0.3
2014-Oct-01 06:00S 53°36' W 045°00'1110.7 999.4 0.6
2014-Oct-01 05:00S 53°36' W 044°42'2110.7 999.3 0.4
2014-Oct-01 03:00S 53°36' W 044°06'1414.2 999.6 0.5
2014-Oct-01 02:00S 53°36' W 043°42'2211.1 1000.1 0.5
2014-Oct-01 00:00S 53°42' W 043°06'1110.7 1001.4 0.3
2014-Sep-30 23:00S 53°42' W 042°48'1110.7 1001.7 0.1
2014-Sep-30 22:00S 53°42' W 042°30'7 7.1 1001.1 -0.4
2014-Sep-30 21:00S 53°42' W 042°18'2211.1 1001.1 -0.6
2014-Sep-30 19:00S 53°48' W 041°42'1110.6 999.7 -1.4
2014-Sep-30 18:00S 53°48' W 041°24'18 8.9 998.3 -0.5
2014-Sep-30 16:00S 53°48' W 040°54'7 7.1 997.6 -1.3
2014-Sep-30 15:00S 53°48' W 040°42'1110.6 996.2 -0.8
2014-Sep-30 14:00S 53°48' W 040°24'7 7.1 996.0 -0.9
2014-Sep-30 13:00S 53°48' W 040°12'1110.6 996.0 -1.9
2014-Sep-30 12:00S 53°48' W 039°54'1110.6 995.2 -1.8
2014-Sep-30 11:00S 53°48' W 039°36'1110.6 994.2 -1.3
2014-Sep-30 10:00S 53°48' W 039°18'7 7.1 993.8 -1.4
2014-Sep-30 09:00S 53°48' W 039°06'7 7.1 993.4 -1.2
2014-Sep-30 08:00S 53°48' W 038°54'7 7.1 993.1 -2.4
2014-Sep-30 07:00S 53°48' W 038°42'7 7.1 992.0 -2.4
2014-Sep-30 06:00S 53°48' W 038°30'14 7.1 990.6 -1.8
2014-Sep-30 04:00S 53°48' W 038°06'7 7.1 989.0 -2.2
2014-Sep-30 03:00S 53°48' W 037°54'7 7.1 988.8 -1.8
2014-Sep-30 02:00S 53°48' W 037°42'14 7.1 987.8 -1.8
2014-Sep-30 00:00S 53°48' W 037°18'1110.6 986.9 -1.6
2014-Sep-29 23:00S 53°48' W 037°00'7 7.1 986.5 -1.4
2014-Sep-29 22:00S 53°48' W 036°48'7 7.0 985.4 -1.1
2014-Sep-29 21:00S 53°54' W 036°42'9 9.3 984.8 -2.0
2014-Sep-29 20:00S 54°00' W 036°30'1312.5 984.2 -2.2
2014-Sep-29 19:00S 54°12' W 036°24'7 3.5 981.8 -1.6
2014-Sep-29 17:00S 54°18' W 036°30'0 0.0 982.8 -0.4-6.0
2014-Sep-29 16:00S 54°18' W 036°30'0 0.0 983.1 -0.1-8.1
2014-Sep-29 13:00S 54°18' W 036°30'4 1.8 983.9 0.7-5.6
2014-Sep-29 11:00S 54°18' W 036°24'6 6.0 985.7 1.4
2014-Sep-29 10:00S 54°12' W 036°24'1212.1 985.3 -0.8
2014-Sep-29 09:00S 54°06' W 036°06'7 7.0 985.8 -1.5
2014-Sep-29 08:00S 54°06' W 035°54'1110.6 986.8 -1.5
2014-Sep-29 07:00S 54°06' W 035°36'7 7.0 986.7 -1.2
2014-Sep-29 06:00S 54°06' W 035°24'7 7.0 987.1 -1.3
2014-Sep-29 05:00S 54°06' W 035°12'4 3.5 987.4 -1.5
2014-Sep-29 04:00S 54°06' W 035°06'7 7.0 987.2 -1.3
2014-Sep-29 03:00S 54°00' W 035°00'4 3.5 987.3 -0.9
2014-Sep-29 02:00S 54°00' W 034°54'7 7.1 986.1 -1.1
2014-Sep-29 01:00S 54°00' W 034°42'11 5.3 986.5 -1.4
2014-Sep-28 23:00S 54°00' W 034°24'7 7.1 986.4 -1.5
2014-Sep-28 22:00S 54°00' W 034°12'9 9.3 985.7 -1.7
2014-Sep-28 21:00S 53°54' W 034°00'7 7.1 985.4 -1.6
2014-Sep-28 20:00S 53°54' W 033°48'7 7.1 986.2 -1.1
2014-Sep-28 19:00S 53°54' W 033°36'7 7.1 987.0 -1.1
2014-Sep-28 18:00S 53°54' W 033°24'7 7.1 987.4 -1.0
2014-Sep-28 17:00S 53°54' W 033°12'9 4.6 987.9 -0.8
2014-Sep-28 15:00S 53°48' W 033°00'11 5.3 988.8 -0.8
2014-Sep-28 13:00S 53°48' W 032°42'4 3.5 988.1 -1.1
2014-Sep-28 12:00S 53°48' W 032°36'11 5.3 988.3 -1.4
2014-Sep-28 10:00S 53°48' W 032°18'4 3.5 987.3 -1.5
2014-Sep-28 09:00S 53°48' W 032°12'7 7.0 987.7 -1.8
2014-Sep-28 08:00S 53°42' W 032°06'11 5.3 987.1 -2.6
2014-Sep-28 06:00S 53°42' W 031°48'4 3.6 987.1 -2.0
2014-Sep-28 05:00S 53°42' W 031°42'4 3.6 987.0 -2.3
2014-Sep-28 04:00S 53°42' W 031°36'11 5.3 986.5 -2.2
2014-Sep-28 02:00S 53°42' W 031°18'7 7.0 986.4 -1.9
2014-Sep-28 01:00S 53°36' W 031°12'7 7.1 985.3 -2.3
2014-Sep-28 00:00S 53°36' W 031°00'7 7.1 985.6 -2.4
2014-Sep-27 23:00S 53°36' W 030°48'7 7.1 987.1 -2.6
2014-Sep-27 22:00S 53°36' W 030°36'9 9.3 989.7 -3.0
2014-Sep-27 21:00S 53°30' W 030°24'7 7.1 989.9 -3.4
2014-Sep-27 20:00S 53°30' W 030°12'7 7.1 988.9 -3.4
2014-Sep-27 19:00S 53°30' W 030°00'4 3.6 986.9 -3.5
2014-Sep-27 18:00S 53°30' W 029°54'1212.3 985.3 -3.5
2014-Sep-27 17:00S 53°24' W 029°36'7 7.2 984.4 -3.1
2014-Sep-27 16:00S 53°24' W 029°24'1110.7 983.3 -3.3
2014-Sep-27 15:00S 53°24' W 029°06'9 9.3 981.2 -3.4
2014-Sep-27 14:00S 53°18' W 028°54'1110.8 977.9 -3.6
2014-Sep-27 13:00S 53°18' W 028°36'3511.5 976.3 -3.1
2014-Sep-27 10:00S 53°06' W 027°42'1110.8 974.0 -1.3
2014-Sep-27 09:00S 53°06' W 027°24'2613.0 976.1 -1.2
2014-Sep-27 07:00S 53°00' W 026°42'1212.4 984.1 -0.9
2014-Sep-27 06:00S 52°54' W 026°24'1110.9 987.8 -0.8
2014-Sep-27 05:00S 52°54' W 026°06'1212.4 990.2 -0.7
2014-Sep-27 04:00S 52°48' W 025°48'7 7.3 993.5 -0.4
2014-Sep-27 03:00S 52°48' W 025°36'1212.4 995.8 0.2
2014-Sep-27 02:00S 52°42' W 025°18'2311.3 997.4 0.3
2014-Sep-27 00:00S 52°36' W 024°42'1110.9 1000.6 -0.1
2014-Sep-26 23:00S 52°36' W 024°24'1212.5 1002.7 -0.2
2014-Sep-26 22:00S 52°30' W 024°06'1111.0 1003.5 -0.8
2014-Sep-26 21:00S 52°30' W 023°48'2311.4 1003.5 -1.3
2014-Sep-26 19:00S 52°24' W 023°12'1312.5 1001.6 -1.1
2014-Sep-26 18:00S 52°18' W 022°54'1312.5 -1.0
2014-Sep-26 17:00S 52°12' W 022°36'2311.4 999.1 -0.7
2014-Sep-26 15:00S 52°06' W 022°00'1615.9 996.6 0.5
2014-Sep-26 14:00S 52°00' W 021°36'1111.1 996.4 0.5
2014-Sep-26 13:00S 52°00' W 021°18'1312.6 995.5 0.6
2014-Sep-26 12:00S 51°54' W 021°00'1312.6 993.8 0.9
2014-Sep-26 11:00S 51°48' W 020°42'1312.7 992.9 1.3
2014-Sep-26 10:00S 51°42' W 020°24'1111.2 991.7 1.2
2014-Sep-26 09:00S 51°42' W 020°06'1616.1 990.6 1.4
2014-Sep-26 08:00S 51°36' W 019°42'1312.7 989.9 1.3
2014-Sep-26 07:00S 51°30' W 019°24'1312.7 989.6 1.2
2014-Sep-26 06:00S 51°24' W 019°06'1111.2 990.3 1.3
2014-Sep-26 05:00S 51°24' W 018°48'1312.7 991.0 1.4
2014-Sep-26 04:00S 51°18' W 018°30'1312.8 992.6 1.5
2014-Sep-26 03:00S 51°12' W 018°12'1312.8 993.8 1.6
2014-Sep-26 02:00S 51°06' W 017°54'1111.3 994.7 1.7
2014-Sep-26 01:00S 51°06' W 017°36'1312.8 996.0 2.0
2014-Sep-26 00:00S 51°00' W 017°18'1312.8 998.6 2.1
2014-Sep-25 23:00S 50°54' W 017°00'2914.6 1002.4 2.3
2014-Sep-25 21:00S 50°42' W 016°18'1312.9 1007.8 2.3
2014-Sep-25 20:00S 50°36' W 016°00'2411.8 1009.4 2.3
2014-Sep-25 18:00S 50°30' W 015°24'2612.9 1012.1 2.6
2014-Sep-25 16:00S 50°18' W 014°48'1313.0 1015.7 2.4
2014-Sep-25 15:00S 50°12' W 014°30'1313.0 1017.7 2.1
2014-Sep-25 14:00S 50°06' W 014°12'1313.0 1019.3 2.1
2014-Sep-25 13:00S 50°00' W 013°54'1313.0 1020.9 1.7
2014-Sep-25 12:00S 49°54' W 013°36'1211.6 1021.7 1.1
2014-Sep-25 11:00S 49°54' W 013°18'1313.1 1022.7 0.6
2014-Sep-25 10:00S 49°48' W 013°00'10 9.8 1022.9 0.5
2014-Sep-25 09:00S 49°42' W 012°48'1313.1 1022.7 0.1
2014-Sep-25 08:00S 49°36' W 012°30'1211.7 1022.6 -0.1
2014-Sep-25 07:00S 49°36' W 012°12'10 9.8 1022.6 0.1
2014-Sep-25 06:00S 49°30' W 012°00'2010.2 1022.0 0.1
2014-Sep-25 04:00S 49°24' W 011°30'10 9.9 1020.9 0.4
2014-Sep-25 03:00S 49°18' W 011°18'2010.2 1019.9 0.2
2014-Sep-25 01:00S 49°12' W 010°48'10 9.9 1018.8 0.4
2014-Sep-25 00:00S 49°06' W 010°36'8 7.9 1017.9 0.2
2014-Sep-24 23:00S 49°06' W 010°24'1313.2 1016.7 0.2
2014-Sep-24 22:00S 49°00' W 010°06'8 7.9 1015.6 0.3
2014-Sep-24 21:00S 49°00' W 009°54'10 9.9 1015.2 0.1
2014-Sep-24 20:00S 48°54' W 009°42'10 9.9 1015.3 0.5
2014-Sep-24 19:00S 48°48' W 009°30'8 7.9 1013.8 0.1
2014-Sep-24 18:00S 48°48' W 009°18'10 9.9 1012.2
2014-Sep-24 17:00S 48°42' W 009°06'17 8.5 1012.0 -0.2
2014-Sep-24 15:00S 48°36' W 008°42'1010.0 1009.9 -0.5
2014-Sep-24 14:00S 48°30' W 008°30'8 8.0 1009.1 -0.4
2014-Sep-24 13:00S 48°30' W 008°18'7 7.2 1008.5 -1.0
2014-Sep-24 12:00S 48°24' W 008°12'8 8.0 1007.2 -1.0
2014-Sep-24 11:00S 48°24' W 008°00'   1005.3 -1.1
Track history (hours):
 
Tides and Currents Weather Stations Pressure Air Temp Water Temp Dewpoint Dewpoint Depression Visibility Wind Speed Wind Dir Waves Ship Positions

Callsign AMOUK20 (name unknown)

Last reported at 2014-Oct-04 11:00 UTC. Time now 2014-Dec-21 15:52 UTC.
Position S 51°54' W 058°36'.
Warning: this ship's position is months out of date.

Barometer 1018.7 mb
Air temperature 5.8 ° C

Date/timePositionNaut miles runAvg speedWind from/ knotsBaromVisibWave heightAir tempDewpointWater temp
2014-Oct-04 11:00S 51°54' W 058°36'4 3.7 1018.7 5.8
2014-Oct-04 10:00S 51°54' W 058°30'0 0.0 1019.2 5.8
2014-Oct-04 09:00S 51°54' W 058°30'0 0.0 1019.4 5.5
2014-Oct-04 08:00S 51°54' W 058°30'0 0.0 1019.5 5.4
2014-Oct-04 07:00S 51°54' W 058°30'0 0.0 1019.7 5.5
2014-Oct-04 06:00S 51°54' W 058°30'0 0.0 1020.0 5.6
2014-Oct-04 05:00S 51°54' W 058°30'0 0.0 1020.7 5.6
2014-Oct-04 04:00S 51°54' W 058°30'0 0.0 1021.0 5.5
2014-Oct-04 03:00S 51°54' W 058°30'0 0.0 1022.0 5.4
2014-Oct-04 02:00S 51°54' W 058°30'0 0.0 1022.0 5.2
2014-Oct-04 01:00S 51°54' W 058°30'0 0.0 1021.4 5.4
2014-Oct-04 00:00S 51°54' W 058°30'0 0.0 1022.6 5.4
2014-Oct-03 23:00S 51°54' W 058°30'0 0.0 1022.5 5.5
2014-Oct-03 21:00S 51°54' W 058°30'0 0.0 1022.9 5.9
2014-Oct-03 19:00S 51°54' W 058°30'4 3.7 1022.0 6.3
2014-Oct-03 18:00S 51°54' W 058°36'7 7.4 1022.3 6.3
2014-Oct-03 17:00S 51°54' W 058°24'10 4.8 1022.8 8.8
2014-Oct-03 15:00S 52°00' W 058°12'0 0.0 1024.2 8.2
2014-Oct-03 14:00S 52°00' W 058°12'0 0.0 1024.8 7.4
2014-Oct-03 13:00S 52°00' W 058°12'0 0.0 1025.0 7.4
2014-Oct-03 12:00S 52°00' W 058°12'4 3.7 1025.6 6.3
2014-Oct-03 11:00S 52°00' W 058°06'4 3.7 1025.4 5.5
2014-Oct-03 10:00S 52°00' W 058°12'4 3.7 1025.3 4.8
2014-Oct-03 09:00S 52°00' W 058°06'4 3.7 1026.1 4.4
2014-Oct-03 08:00S 52°00' W 058°12'0 0.0 1026.4 5.9
2014-Oct-03 07:00S 52°00' W 058°12'0 0.0 1026.7 5.2
2014-Oct-03 06:00S 52°00' W 058°12'0 0.0 1026.9 4.4
2014-Oct-03 05:00S 52°00' W 058°12'0 0.0 1028.2 3.7
2014-Oct-03 03:00S 52°00' W 058°12'13 6.3 1029.2 3.6
2014-Oct-03 01:00S 52°06' W 057°54'1514.7 1029.3 4.7
2014-Oct-03 00:00S 52°06' W 057°30'2311.4 1029.2 5.3
2014-Oct-02 22:00S 52°12' W 056°54'1111.0 1028.0 5.6
2014-Oct-02 21:00S 52°12' W 056°36'1514.7 1027.6 5.8
2014-Oct-02 20:00S 52°12' W 056°12'1312.5 1027.3 5.3
2014-Oct-02 19:00S 52°18' W 055°54'1111.0 1027.1 4.7
2014-Oct-02 18:00S 52°18' W 055°36'1312.5 1026.5 4.4
2014-Oct-02 17:00S 52°24' W 055°18'2311.4 1026.4 4.3
2014-Oct-02 15:00S 52°30' W 054°42'1111.0 1026.0 4.4
2014-Oct-02 14:00S 52°30' W 054°24'2311.3 1025.3 4.0
2014-Oct-02 12:00S 52°36' W 053°48'1212.5 1023.6 3.7
2014-Oct-02 11:00S 52°42' W 053°30'7 7.3 1023.3 3.5
2014-Oct-02 10:00S 52°42' W 053°18'1110.9 1022.1 3.1
2014-Oct-02 09:00S 52°42' W 053°00'1212.4 1020.3 2.8
2014-Oct-02 08:00S 52°48' W 052°42'1110.9 1019.6 2.6
2014-Oct-02 07:00S 52°48' W 052°24'1212.4 1018.9 2.3
2014-Oct-02 06:00S 52°54' W 052°06'1110.9 1018.1 2.4
2014-Oct-02 05:00S 52°54' W 051°48'1110.9 1017.6 2.6
2014-Oct-02 04:00S 52°54' W 051°30'1212.4 1016.0 2.5
2014-Oct-02 03:00S 53°00' W 051°12'1110.8 1016.0 2.7
2014-Oct-02 02:00S 53°00' W 050°54'1110.8 1014.7 2.8
2014-Oct-02 01:00S 53°00' W 050°36'9 9.4 1014.3 3.0
2014-Oct-02 00:00S 53°06' W 050°24'2210.8 1013.4 3.1
2014-Oct-01 22:00S 53°06' W 049°48'1212.4 1010.8 2.8
2014-Oct-01 21:00S 53°12' W 049°30'2210.8 1009.9 2.6
2014-Oct-01 19:00S 53°12' W 048°54'1110.8 1008.0 1.1
2014-Oct-01 18:00S 53°12' W 048°36'1212.3 1007.6 1.4
2014-Oct-01 17:00S 53°18' W 048°18'1110.8 1006.2 0.8
2014-Oct-01 16:00S 53°18' W 048°00'1110.8 1006.3 0.6
2014-Oct-01 15:00S 53°18' W 047°42'1212.3 1005.5 0.6
2014-Oct-01 14:00S 53°24' W 047°24'2512.5 1004.8 0.1
2014-Oct-01 12:00S 53°24' W 046°42'1110.7 1003.0 -0.4
2014-Oct-01 11:00S 53°24' W 046°24'2211.1 1001.8
2014-Oct-01 09:00S 53°30' W 045°48'18 8.9 998.8 0.5
2014-Oct-01 07:00S 53°30' W 045°18'1212.3 998.7 0.3
2014-Oct-01 06:00S 53°36' W 045°00'1110.7 999.4 0.6
2014-Oct-01 05:00S 53°36' W 044°42'2110.7 999.3 0.4
2014-Oct-01 03:00S 53°36' W 044°06'1414.2 999.6 0.5
2014-Oct-01 02:00S 53°36' W 043°42'2211.1 1000.1 0.5
2014-Oct-01 00:00S 53°42' W 043°06'1110.7 1001.4 0.3
2014-Sep-30 23:00S 53°42' W 042°48'1110.7 1001.7 0.1
2014-Sep-30 22:00S 53°42' W 042°30'7 7.1 1001.1 -0.4
2014-Sep-30 21:00S 53°42' W 042°18'2211.1 1001.1 -0.6
2014-Sep-30 19:00S 53°48' W 041°42'1110.6 999.7 -1.4
2014-Sep-30 18:00S 53°48' W 041°24'18 8.9 998.3 -0.5
2014-Sep-30 16:00S 53°48' W 040°54'7 7.1 997.6 -1.3
2014-Sep-30 15:00S 53°48' W 040°42'1110.6 996.2 -0.8
2014-Sep-30 14:00S 53°48' W 040°24'7 7.1 996.0 -0.9
2014-Sep-30 13:00S 53°48' W 040°12'1110.6 996.0 -1.9
2014-Sep-30 12:00S 53°48' W 039°54'1110.6 995.2 -1.8
2014-Sep-30 11:00S 53°48' W 039°36'1110.6 994.2 -1.3
2014-Sep-30 10:00S 53°48' W 039°18'7 7.1 993.8 -1.4
2014-Sep-30 09:00S 53°48' W 039°06'7 7.1 993.4 -1.2
2014-Sep-30 08:00S 53°48' W 038°54'7 7.1 993.1 -2.4
2014-Sep-30 07:00S 53°48' W 038°42'7 7.1 992.0 -2.4
2014-Sep-30 06:00S 53°48' W 038°30'14 7.1 990.6 -1.8
2014-Sep-30 04:00S 53°48' W 038°06'7 7.1 989.0 -2.2
2014-Sep-30 03:00S 53°48' W 037°54'7 7.1 988.8 -1.8
2014-Sep-30 02:00S 53°48' W 037°42'14 7.1 987.8 -1.8
2014-Sep-30 00:00S 53°48' W 037°18'1110.6 986.9 -1.6
2014-Sep-29 23:00S 53°48' W 037°00'7 7.1 986.5 -1.4
2014-Sep-29 22:00S 53°48' W 036°48'7 7.0 985.4 -1.1
2014-Sep-29 21:00S 53°54' W 036°42'9 9.3 984.8 -2.0
2014-Sep-29 20:00S 54°00' W 036°30'1312.5 984.2 -2.2
2014-Sep-29 19:00S 54°12' W 036°24'7 3.5 981.8 -1.6
2014-Sep-29 17:00S 54°18' W 036°30'0 0.0 982.8 -0.4-6.0
2014-Sep-29 16:00S 54°18' W 036°30'0 0.0 983.1 -0.1-8.1
2014-Sep-29 13:00S 54°18' W 036°30'4 1.8 983.9 0.7-5.6
2014-Sep-29 11:00S 54°18' W 036°24'6 6.0 985.7 1.4
2014-Sep-29 10:00S 54°12' W 036°24'1212.1 985.3 -0.8
2014-Sep-29 09:00S 54°06' W 036°06'7 7.0 985.8 -1.5
2014-Sep-29 08:00S 54°06' W 035°54'1110.6 986.8 -1.5
2014-Sep-29 07:00S 54°06' W 035°36'7 7.0 986.7 -1.2
2014-Sep-29 06:00S 54°06' W 035°24'7 7.0 987.1 -1.3
2014-Sep-29 05:00S 54°06' W 035°12'4 3.5 987.4 -1.5
2014-Sep-29 04:00S 54°06' W 035°06'7 7.0 987.2 -1.3
2014-Sep-29 03:00S 54°00' W 035°00'4 3.5 987.3 -0.9
2014-Sep-29 02:00S 54°00' W 034°54'7 7.1 986.1 -1.1
2014-Sep-29 01:00S 54°00' W 034°42'11 5.3 986.5 -1.4
2014-Sep-28 23:00S 54°00' W 034°24'7 7.1 986.4 -1.5
2014-Sep-28 22:00S 54°00' W 034°12'9 9.3 985.7 -1.7
2014-Sep-28 21:00S 53°54' W 034°00'7 7.1 985.4 -1.6
2014-Sep-28 20:00S 53°54' W 033°48'7 7.1 986.2 -1.1
2014-Sep-28 19:00S 53°54' W 033°36'7 7.1 987.0 -1.1
2014-Sep-28 18:00S 53°54' W 033°24'7 7.1 987.4 -1.0
2014-Sep-28 17:00S 53°54' W 033°12'9 4.6 987.9 -0.8
2014-Sep-28 15:00S 53°48' W 033°00'11 5.3 988.8 -0.8
2014-Sep-28 13:00S 53°48' W 032°42'4 3.5 988.1 -1.1
2014-Sep-28 12:00S 53°48' W 032°36'11 5.3 988.3 -1.4
2014-Sep-28 10:00S 53°48' W 032°18'4 3.5 987.3 -1.5
2014-Sep-28 09:00S 53°48' W 032°12'7 7.0 987.7 -1.8
2014-Sep-28 08:00S 53°42' W 032°06'11 5.3 987.1 -2.6
2014-Sep-28 06:00S 53°42' W 031°48'4 3.6 987.1 -2.0
2014-Sep-28 05:00S 53°42' W 031°42'4 3.6 987.0 -2.3
2014-Sep-28 04:00S 53°42' W 031°36'11 5.3 986.5 -2.2
2014-Sep-28 02:00S 53°42' W 031°18'7 7.0 986.4 -1.9
2014-Sep-28 01:00S 53°36' W 031°12'7 7.1 985.3 -2.3
2014-Sep-28 00:00S 53°36' W 031°00'7 7.1 985.6 -2.4
2014-Sep-27 23:00S 53°36' W 030°48'7 7.1 987.1 -2.6
2014-Sep-27 22:00S 53°36' W 030°36'9 9.3 989.7 -3.0
2014-Sep-27 21:00S 53°30' W 030°24'7 7.1 989.9 -3.4
2014-Sep-27 20:00S 53°30' W 030°12'7 7.1 988.9 -3.4
2014-Sep-27 19:00S 53°30' W 030°00'4 3.6 986.9 -3.5
2014-Sep-27 18:00S 53°30' W 029°54'1212.3 985.3 -3.5
2014-Sep-27 17:00S 53°24' W 029°36'7 7.2 984.4 -3.1
2014-Sep-27 16:00S 53°24' W 029°24'1110.7 983.3 -3.3
2014-Sep-27 15:00S 53°24' W 029°06'9 9.3 981.2 -3.4
2014-Sep-27 14:00S 53°18' W 028°54'1110.8 977.9 -3.6
2014-Sep-27 13:00S 53°18' W 028°36'3511.5 976.3 -3.1
2014-Sep-27 10:00S 53°06' W 027°42'1110.8 974.0 -1.3
2014-Sep-27 09:00S 53°06' W 027°24'2613.0 976.1 -1.2
2014-Sep-27 07:00S 53°00' W 026°42'1212.4 984.1 -0.9
2014-Sep-27 06:00S 52°54' W 026°24'1110.9 987.8 -0.8
2014-Sep-27 05:00S 52°54' W 026°06'1212.4 990.2 -0.7
2014-Sep-27 04:00S 52°48' W 025°48'7 7.3 993.5 -0.4
2014-Sep-27 03:00S 52°48' W 025°36'1212.4 995.8 0.2
2014-Sep-27 02:00S 52°42' W 025°18'2311.3 997.4 0.3
2014-Sep-27 00:00S 52°36' W 024°42'1110.9 1000.6 -0.1
2014-Sep-26 23:00S 52°36' W 024°24'1212.5 1002.7 -0.2
2014-Sep-26 22:00S 52°30' W 024°06'1111.0 1003.5 -0.8
2014-Sep-26 21:00S 52°30' W 023°48'2311.4 1003.5 -1.3
2014-Sep-26 19:00S 52°24' W 023°12'1312.5 1001.6 -1.1
2014-Sep-26 18:00S 52°18' W 022°54'1312.5 -1.0
2014-Sep-26 17:00S 52°12' W 022°36'2311.4 999.1 -0.7
2014-Sep-26 15:00S 52°06' W 022°00'1615.9 996.6 0.5
2014-Sep-26 14:00S 52°00' W 021°36'1111.1 996.4 0.5
2014-Sep-26 13:00S 52°00' W 021°18'1312.6 995.5 0.6
2014-Sep-26 12:00S 51°54' W 021°00'1312.6 993.8 0.9
2014-Sep-26 11:00S 51°48' W 020°42'1312.7 992.9 1.3
2014-Sep-26 10:00S 51°42' W 020°24'1111.2 991.7 1.2
2014-Sep-26 09:00S 51°42' W 020°06'1616.1 990.6 1.4
2014-Sep-26 08:00S 51°36' W 019°42'1312.7 989.9 1.3
2014-Sep-26 07:00S 51°30' W 019°24'1312.7 989.6 1.2
2014-Sep-26 06:00S 51°24' W 019°06'1111.2 990.3 1.3
2014-Sep-26 05:00S 51°24' W 018°48'1312.7 991.0 1.4
2014-Sep-26 04:00S 51°18' W 018°30'1312.8 992.6 1.5
2014-Sep-26 03:00S 51°12' W 018°12'1312.8 993.8 1.6
2014-Sep-26 02:00S 51°06' W 017°54'1111.3 994.7 1.7
2014-Sep-26 01:00S 51°06' W 017°36'1312.8 996.0 2.0
2014-Sep-26 00:00S 51°00' W 017°18'1312.8 998.6 2.1
2014-Sep-25 23:00S 50°54' W 017°00'2914.6 1002.4 2.3
2014-Sep-25 21:00S 50°42' W 016°18'1312.9 1007.8 2.3
2014-Sep-25 20:00S 50°36' W 016°00'2411.8 1009.4 2.3
2014-Sep-25 18:00S 50°30' W 015°24'2612.9 1012.1 2.6
2014-Sep-25 16:00S 50°18' W 014°48'1313.0 1015.7 2.4
2014-Sep-25 15:00S 50°12' W 014°30'1313.0 1017.7 2.1
2014-Sep-25 14:00S 50°06' W 014°12'1313.0 1019.3 2.1
2014-Sep-25 13:00S 50°00' W 013°54'1313.0 1020.9 1.7
2014-Sep-25 12:00S 49°54' W 013°36'1211.6 1021.7 1.1
2014-Sep-25 11:00S 49°54' W 013°18'1313.1 1022.7 0.6
2014-Sep-25 10:00S 49°48' W 013°00'10 9.8 1022.9 0.5
2014-Sep-25 09:00S 49°42' W 012°48'1313.1 1022.7 0.1
2014-Sep-25 08:00S 49°36' W 012°30'1211.7 1022.6 -0.1
2014-Sep-25 07:00S 49°36' W 012°12'10 9.8 1022.6 0.1
2014-Sep-25 06:00S 49°30' W 012°00'2010.2 1022.0 0.1
2014-Sep-25 04:00S 49°24' W 011°30'10 9.9 1020.9 0.4
2014-Sep-25 03:00S 49°18' W 011°18'2010.2 1019.9 0.2
2014-Sep-25 01:00S 49°12' W 010°48'10 9.9 1018.8 0.4
2014-Sep-25 00:00S 49°06' W 010°36'8 7.9 1017.9 0.2
2014-Sep-24 23:00S 49°06' W 010°24'1313.2 1016.7 0.2
2014-Sep-24 22:00S 49°00' W 010°06'8 7.9 1015.6 0.3
2014-Sep-24 21:00S 49°00' W 009°54'10 9.9 1015.2 0.1
2014-Sep-24 20:00S 48°54' W 009°42'10 9.9 1015.3 0.5
2014-Sep-24 19:00S 48°48' W 009°30'8 7.9 1013.8 0.1
2014-Sep-24 18:00S 48°48' W 009°18'10 9.9 1012.2
2014-Sep-24 17:00S 48°42' W 009°06'17 8.5 1012.0 -0.2
2014-Sep-24 15:00S 48°36' W 008°42'1010.0 1009.9 -0.5
2014-Sep-24 14:00S 48°30' W 008°30'8 8.0 1009.1 -0.4
2014-Sep-24 13:00S 48°30' W 008°18'7 7.2 1008.5 -1.0
2014-Sep-24 12:00S 48°24' W 008°12'8 8.0 1007.2 -1.0
2014-Sep-24 11:00S 48°24' W 008°00'   1005.3 -1.1

Dump ship's entire track history